sensor_id;sensor_type;location;lat;lon;timestamp;temperature;humidity
16273;DHT22;8244;50.044;9.006;2023-02-28T00:03:25;-0.40;99.90
16273;DHT22;8244;50.044;9.006;2023-02-28T00:08:27;-0.50;99.90
16273;DHT22;8244;50.044;9.006;2023-02-28T00:13:29;-0.60;99.90
16273;DHT22;8244;50.044;9.006;2023-02-28T00:18:32;-0.70;99.90
16273;DHT22;8244;50.044;9.006;2023-02-28T00:23:34;-0.80;99.90
16273;DHT22;8244;50.044;9.006;2023-02-28T00:28:36;-0.90;99.90
16273;DHT22;8244;50.044;9.006;2023-02-28T00:33:39;-1.00;99.90
16273;DHT22;8244;50.044;9.006;2023-02-28T00:38:41;-1.00;99.90
16273;DHT22;8244;50.044;9.006;2023-02-28T00:43:42;-1.10;99.90
16273;DHT22;8244;50.044;9.006;2023-02-28T00:48:45;-1.10;99.90
16273;DHT22;8244;50.044;9.006;2023-02-28T00:53:47;-1.10;99.90
16273;DHT22;8244;50.044;9.006;2023-02-28T00:58:49;-1.20;99.90
16273;DHT22;8244;50.044;9.006;2023-02-28T01:03:52;-1.30;99.90
16273;DHT22;8244;50.044;9.006;2023-02-28T01:08:53;-1.30;99.90
16273;DHT22;8244;50.044;9.006;2023-02-28T01:13:55;-1.40;99.90
16273;DHT22;8244;50.044;9.006;2023-02-28T01:18:58;-1.40;99.90
16273;DHT22;8244;50.044;9.006;2023-02-28T01:24:00;-1.40;99.90
16273;DHT22;8244;50.044;9.006;2023-02-28T01:29:02;-1.50;99.90
16273;DHT22;8244;50.044;9.006;2023-02-28T01:34:05;-1.50;99.90
16273;DHT22;8244;50.044;9.006;2023-02-28T01:39:07;-1.50;99.90
16273;DHT22;8244;50.044;9.006;2023-02-28T01:49:45;-1.60;99.90
16273;DHT22;8244;50.044;9.006;2023-02-28T01:54:50;-1.70;99.90
16273;DHT22;8244;50.044;9.006;2023-02-28T01:59:55;-1.90;99.90
16273;DHT22;8244;50.044;9.006;2023-02-28T02:05:10;-2.00;99.90
16273;DHT22;8244;50.044;9.006;2023-02-28T02:10:15;-2.10;99.90
16273;DHT22;8244;50.044;9.006;2023-02-28T02:15:22;-2.20;99.90
16273;DHT22;8244;50.044;9.006;2023-02-28T02:26:21;-2.30;99.90
16273;DHT22;8244;50.044;9.006;2023-02-28T02:31:55;-2.30;99.90
16273;DHT22;8244;50.044;9.006;2023-02-28T02:37:11;-2.40;99.90
16273;DHT22;8244;50.044;9.006;2023-02-28T02:42:18;-2.40;99.90
16273;DHT22;8244;50.044;9.006;2023-02-28T02:47:26;-2.50;99.90
16273;DHT22;8244;50.044;9.006;2023-02-28T02:52:35;-2.50;99.90
16273;DHT22;8244;50.044;9.006;2023-02-28T02:57:43;-2.50;99.90
16273;DHT22;8244;50.044;9.006;2023-02-28T03:02:47;-2.50;99.90
16273;DHT22;8244;50.044;9.006;2023-02-28T03:07:51;-2.50;99.90
16273;DHT22;8244;50.044;9.006;2023-02-28T03:13:05;-2.40;99.90
16273;DHT22;8244;50.044;9.006;2023-02-28T03:18:10;-2.30;99.90
16273;DHT22;8244;50.044;9.006;2023-02-28T03:23:21;-2.30;99.90
16273;DHT22;8244;50.044;9.006;2023-02-28T03:28:31;-2.20;99.90
16273;DHT22;8244;50.044;9.006;2023-02-28T03:33:37;-2.20;99.90
16273;DHT22;8244;50.044;9.006;2023-02-28T03:38:44;-2.20;99.90
16273;DHT22;8244;50.044;9.006;2023-02-28T03:43:52;-2.10;99.90
16273;DHT22;8244;50.044;9.006;2023-02-28T03:48:59;-2.10;99.90
16273;DHT22;8244;50.044;9.006;2023-02-28T03:54:07;-2.20;99.90
16273;DHT22;8244;50.044;9.006;2023-02-28T03:59:14;-2.20;99.90
16273;DHT22;8244;50.044;9.006;2023-02-28T04:04:17;-2.20;99.90
16273;DHT22;8244;50.044;9.006;2023-02-28T04:09:20;-2.30;99.90
16273;DHT22;8244;50.044;9.006;2023-02-28T04:14:22;-2.30;99.90
16273;DHT22;8244;50.044;9.006;2023-02-28T04:19:23;-2.40;99.90
16273;DHT22;8244;50.044;9.006;2023-02-28T04:24:27;-2.40;99.90
16273;DHT22;8244;50.044;9.006;2023-02-28T04:29:31;-2.50;99.90
16273;DHT22;8244;50.044;9.006;2023-02-28T04:34:33;-2.50;99.90
16273;DHT22;8244;50.044;9.006;2023-02-28T04:39:36;-2.60;99.90
16273;DHT22;8244;50.044;9.006;2023-02-28T04:44:38;-2.60;99.90
16273;DHT22;8244;50.044;9.006;2023-02-28T04:49:39;-2.70;99.90
16273;DHT22;8244;50.044;9.006;2023-02-28T04:54:43;-2.70;99.90
16273;DHT22;8244;50.044;9.006;2023-02-28T04:59:45;-2.80;99.90
16273;DHT22;8244;50.044;9.006;2023-02-28T05:04:46;-2.70;99.90
16273;DHT22;8244;50.044;9.006;2023-02-28T05:09:49;-2.70;99.90
16273;DHT22;8244;50.044;9.006;2023-02-28T05:14:51;-2.70;99.90
16273;DHT22;8244;50.044;9.006;2023-02-28T05:19:53;-2.80;99.90
16273;DHT22;8244;50.044;9.006;2023-02-28T05:24:55;-2.80;99.90
16273;DHT22;8244;50.044;9.006;2023-02-28T05:29:57;-2.80;99.90
16273;DHT22;8244;50.044;9.006;2023-02-28T05:34:59;-2.80;99.90
16273;DHT22;8244;50.044;9.006;2023-02-28T05:40:03;-2.80;99.90
16273;DHT22;8244;50.044;9.006;2023-02-28T05:45:08;-2.90;99.90
16273;DHT22;8244;50.044;9.006;2023-02-28T05:50:10;-2.80;99.90
16273;DHT22;8244;50.044;9.006;2023-02-28T05:55:13;-2.90;99.90
16273;DHT22;8244;50.044;9.006;2023-02-28T06:00:15;-2.90;99.90
16273;DHT22;8244;50.044;9.006;2023-02-28T06:05:18;-2.80;99.90
16273;DHT22;8244;50.044;9.006;2023-02-28T06:10:21;-2.80;99.90
16273;DHT22;8244;50.044;9.006;2023-02-28T06:15:22;-2.70;99.90
16273;DHT22;8244;50.044;9.006;2023-02-28T06:20:25;-2.70;99.90
16273;DHT22;8244;50.044;9.006;2023-02-28T06:25:30;-2.60;99.90
16273;DHT22;8244;50.044;9.006;2023-02-28T06:30:32;-2.50;99.90
16273;DHT22;8244;50.044;9.006;2023-02-28T06:35:35;-2.40;99.90
16273;DHT22;8244;50.044;9.006;2023-02-28T06:40:38;-2.30;99.90
16273;DHT22;8244;50.044;9.006;2023-02-28T06:45:42;-2.20;99.90
16273;DHT22;8244;50.044;9.006;2023-02-28T06:50:43;-2.20;99.90
16273;DHT22;8244;50.044;9.006;2023-02-28T06:55:46;-2.10;99.90
16273;DHT22;8244;50.044;9.006;2023-02-28T07:00:51;-2.00;99.90
16273;DHT22;8244;50.044;9.006;2023-02-28T07:05:52;-1.80;99.90
16273;DHT22;8244;50.044;9.006;2023-02-28T07:10:58;-1.60;99.90
16273;DHT22;8244;50.044;9.006;2023-02-28T07:16:01;-1.50;99.90
16273;DHT22;8244;50.044;9.006;2023-02-28T07:21:05;-1.30;99.90
16273;DHT22;8244;50.044;9.006;2023-02-28T07:26:12;-1.10;99.90
16273;DHT22;8244;50.044;9.006;2023-02-28T07:31:16;-1.00;99.90
16273;DHT22;8244;50.044;9.006;2023-02-28T07:36:18;-0.80;99.90
16273;DHT22;8244;50.044;9.006;2023-02-28T07:41:22;-0.70;99.90
16273;DHT22;8244;50.044;9.006;2023-02-28T07:46:27;-0.50;99.90
16273;DHT22;8244;50.044;9.006;2023-02-28T07:51:35;-0.40;99.90
16273;DHT22;8244;50.044;9.006;2023-02-28T07:56:38;-0.10;99.90
16273;DHT22;8244;50.044;9.006;2023-02-28T08:01:40;0.30;99.90
16273;DHT22;8244;50.044;9.006;2023-02-28T08:06:41;0.80;99.90
16273;DHT22;8244;50.044;9.006;2023-02-28T08:11:44;1.50;99.90
16273;DHT22;8244;50.044;9.006;2023-02-28T08:16:46;2.00;99.90
16273;DHT22;8244;50.044;9.006;2023-02-28T08:21:47;2.40;99.90
16273;DHT22;8244;50.044;9.006;2023-02-28T08:26:50;2.90;99.90
16273;DHT22;8244;50.044;9.006;2023-02-28T08:31:52;3.20;99.90
16273;DHT22;8244;50.044;9.006;2023-02-28T08:36:54;3.90;99.90
16273;DHT22;8244;50.044;9.006;2023-02-28T08:41:57;4.50;99.70
16273;DHT22;8244;50.044;9.006;2023-02-28T08:46:59;5.20;99.40
16273;DHT22;8244;50.044;9.006;2023-02-28T08:52:00;5.70;97.00
16273;DHT22;8244;50.044;9.006;2023-02-28T08:57:03;6.00;95.10
16273;DHT22;8244;50.044;9.006;2023-02-28T09:02:05;6.20;93.00
16273;DHT22;8244;50.044;9.006;2023-02-28T09:07:07;5.60;93.00
16273;DHT22;8244;50.044;9.006;2023-02-28T09:12:10;5.40;93.00
16273;DHT22;8244;50.044;9.006;2023-02-28T09:17:11;4.90;93.30
16273;DHT22;8244;50.044;9.006;2023-02-28T09:22:13;4.50;92.20
16273;DHT22;8244;50.044;9.006;2023-02-28T09:27:16;4.20;92.60
16273;DHT22;8244;50.044;9.006;2023-02-28T09:32:18;4.10;93.10
16273;DHT22;8244;50.044;9.006;2023-02-28T09:37:19;4.00;93.80
16273;DHT22;8244;50.044;9.006;2023-02-28T09:42:30;3.90;92.70
16273;DHT22;8244;50.044;9.006;2023-02-28T09:47:34;4.00;92.00
16273;DHT22;8244;50.044;9.006;2023-02-28T09:52:37;4.10;92.50
16273;DHT22;8244;50.044;9.006;2023-02-28T09:57:41;4.30;92.20
16273;DHT22;8244;50.044;9.006;2023-02-28T10:03:05;4.40;92.10
16273;DHT22;8244;50.044;9.006;2023-02-28T10:08:13;4.60;91.10
16273;DHT22;8244;50.044;9.006;2023-02-28T10:13:22;4.30;90.10
16273;DHT22;8244;50.044;9.006;2023-02-28T10:18:29;4.10;90.80
16273;DHT22;8244;50.044;9.006;2023-02-28T10:23:34;4.10;90.90
16273;DHT22;8244;50.044;9.006;2023-02-28T10:28:38;4.00;90.80
16273;DHT22;8244;50.044;9.006;2023-02-28T10:33:40;3.80;91.40
16273;DHT22;8244;50.044;9.006;2023-02-28T10:38:42;3.80;91.60
16273;DHT22;8244;50.044;9.006;2023-02-28T10:43:46;3.80;91.90
16273;DHT22;8244;50.044;9.006;2023-02-28T10:48:57;3.90;91.60
16273;DHT22;8244;50.044;9.006;2023-02-28T10:54:00;3.90;92.10
16273;DHT22;8244;50.044;9.006;2023-02-28T10:59:26;4.20;91.90
16273;DHT22;8244;50.044;9.006;2023-02-28T11:04:34;4.30;91.40
16273;DHT22;8244;50.044;9.006;2023-02-28T11:09:39;4.30;91.00
16273;DHT22;8244;50.044;9.006;2023-02-28T11:14:49;4.50;91.40
16273;DHT22;8244;50.044;9.006;2023-02-28T11:19:53;4.70;90.00
16273;DHT22;8244;50.044;9.006;2023-02-28T11:24:59;4.70;89.90
16273;DHT22;8244;50.044;9.006;2023-02-28T11:30:03;4.90;88.70
16273;DHT22;8244;50.044;9.006;2023-02-28T11:35:18;5.10;88.40
16273;DHT22;8244;50.044;9.006;2023-02-28T11:40:28;5.20;89.60
16273;DHT22;8244;50.044;9.006;2023-02-28T11:45:53;5.20;89.20
16273;DHT22;8244;50.044;9.006;2023-02-28T11:51:11;5.00;88.10
16273;DHT22;8244;50.044;9.006;2023-02-28T11:56:20;5.30;89.90
16273;DHT22;8244;50.044;9.006;2023-02-28T12:01:36;5.50;87.60
16273;DHT22;8244;50.044;9.006;2023-02-28T12:06:45;5.30;87.20
16273;DHT22;8244;50.044;9.006;2023-02-28T12:11:52;5.40;87.60
16273;DHT22;8244;50.044;9.006;2023-02-28T12:17:03;5.60;87.40
16273;DHT22;8244;50.044;9.006;2023-02-28T12:22:28;5.70;88.50
16273;DHT22;8244;50.044;9.006;2023-02-28T12:27:34;6.00;88.90
16273;DHT22;8244;50.044;9.006;2023-02-28T12:32:40;6.40;88.50
16273;DHT22;8244;50.044;9.006;2023-02-28T12:37:45;6.60;86.60
16273;DHT22;8244;50.044;9.006;2023-02-28T12:42:50;6.80;86.90
16273;DHT22;8244;50.044;9.006;2023-02-28T12:47:58;6.80;85.10
16273;DHT22;8244;50.044;9.006;2023-02-28T12:53:04;6.80;87.30
16273;DHT22;8244;50.044;9.006;2023-02-28T12:58:14;6.90;85.50
16273;DHT22;8244;50.044;9.006;2023-02-28T13:03:36;6.90;84.10
16273;DHT22;8244;50.044;9.006;2023-02-28T13:09:01;6.70;83.00
16273;DHT22;8244;50.044;9.006;2023-02-28T13:14:19;6.70;82.40
16273;DHT22;8244;50.044;9.006;2023-02-28T13:19:24;6.50;81.60
16273;DHT22;8244;50.044;9.006;2023-02-28T13:24:38;6.50;84.00
16273;DHT22;8244;50.044;9.006;2023-02-28T13:29:42;6.40;82.80
16273;DHT22;8244;50.044;9.006;2023-02-28T13:35:14;6.40;83.30
16273;DHT22;8244;50.044;9.006;2023-02-28T13:40:31;6.50;85.30
16273;DHT22;8244;50.044;9.006;2023-02-28T13:45:37;6.50;84.30
16273;DHT22;8244;50.044;9.006;2023-02-28T13:50:42;6.50;85.60
16273;DHT22;8244;50.044;9.006;2023-02-28T13:55:46;6.50;85.80
16273;DHT22;8244;50.044;9.006;2023-02-28T14:01:07;6.40;86.10
16273;DHT22;8244;50.044;9.006;2023-02-28T14:06:22;6.30;84.70
16273;DHT22;8244;50.044;9.006;2023-02-28T14:11:30;6.20;84.70
16273;DHT22;8244;50.044;9.006;2023-02-28T14:16:39;6.20;86.60
16273;DHT22;8244;50.044;9.006;2023-02-28T14:21:53;6.10;85.80
16273;DHT22;8244;50.044;9.006;2023-02-28T14:27:21;6.20;87.70
16273;DHT22;8244;50.044;9.006;2023-02-28T14:32:28;6.20;88.00
16273;DHT22;8244;50.044;9.006;2023-02-28T14:37:38;6.20;88.00
16273;DHT22;8244;50.044;9.006;2023-02-28T14:42:47;6.20;88.20
16273;DHT22;8244;50.044;9.006;2023-02-28T14:47:51;6.20;87.80
16273;DHT22;8244;50.044;9.006;2023-02-28T14:52:54;6.20;88.70
16273;DHT22;8244;50.044;9.006;2023-02-28T14:57:58;6.20;88.70
16273;DHT22;8244;50.044;9.006;2023-02-28T15:03:01;6.30;88.40
16273;DHT22;8244;50.044;9.006;2023-02-28T15:08:19;6.30;86.90
16273;DHT22;8244;50.044;9.006;2023-02-28T15:13:23;6.20;85.90
16273;DHT22;8244;50.044;9.006;2023-02-28T15:18:30;6.20;87.20
16273;DHT22;8244;50.044;9.006;2023-02-28T15:23:35;6.30;86.20
16273;DHT22;8244;50.044;9.006;2023-02-28T15:28:37;6.30;88.10
16273;DHT22;8244;50.044;9.006;2023-02-28T15:33:52;6.30;88.10
16273;DHT22;8244;50.044;9.006;2023-02-28T15:38:56;6.30;87.30
16273;DHT22;8244;50.044;9.006;2023-02-28T15:44:22;6.30;89.20
16273;DHT22;8244;50.044;9.006;2023-02-28T15:49:28;6.20;89.30
16273;DHT22;8244;50.044;9.006;2023-02-28T15:54:34;6.20;88.20
16273;DHT22;8244;50.044;9.006;2023-02-28T15:59:36;6.10;88.50
16273;DHT22;8244;50.044;9.006;2023-02-28T16:04:55;6.00;90.50
16273;DHT22;8244;50.044;9.006;2023-02-28T16:09:58;5.90;89.70
16273;DHT22;8244;50.044;9.006;2023-02-28T16:15:01;5.80;89.70
16273;DHT22;8244;50.044;9.006;2023-02-28T16:20:11;5.60;90.20
16273;DHT22;8244;50.044;9.006;2023-02-28T16:25:16;5.40;90.60
16273;DHT22;8244;50.044;9.006;2023-02-28T16:30:20;5.30;90.60
16273;DHT22;8244;50.044;9.006;2023-02-28T16:35:23;5.10;90.80
16273;DHT22;8244;50.044;9.006;2023-02-28T16:40:26;5.00;91.00
16273;DHT22;8244;50.044;9.006;2023-02-28T16:45:29;4.80;91.60
16273;DHT22;8244;50.044;9.006;2023-02-28T16:50:31;4.60;91.40
16273;DHT22;8244;50.044;9.006;2023-02-28T16:55:34;4.50;91.70
16273;DHT22;8244;50.044;9.006;2023-02-28T17:00:36;4.40;91.70
16273;DHT22;8244;50.044;9.006;2023-02-28T17:05:38;4.20;91.60
16273;DHT22;8244;50.044;9.006;2023-02-28T17:10:41;4.10;91.90
16273;DHT22;8244;50.044;9.006;2023-02-28T17:15:47;4.00;92.40
16273;DHT22;8244;50.044;9.006;2023-02-28T17:20:49;3.90;92.50
16273;DHT22;8244;50.044;9.006;2023-02-28T17:25:52;3.70;92.90
16273;DHT22;8244;50.044;9.006;2023-02-28T17:30:54;3.50;93.10
16273;DHT22;8244;50.044;9.006;2023-02-28T17:35:56;3.40;93.60
16273;DHT22;8244;50.044;9.006;2023-02-28T17:40:59;3.20;93.90
16273;DHT22;8244;50.044;9.006;2023-02-28T17:46:00;3.00;94.20
16273;DHT22;8244;50.044;9.006;2023-02-28T17:51:02;2.80;94.40
16273;DHT22;8244;50.044;9.006;2023-02-28T17:56:08;2.60;94.80
16273;DHT22;8244;50.044;9.006;2023-02-28T18:01:12;2.40;95.10
16273;DHT22;8244;50.044;9.006;2023-02-28T18:06:16;2.20;95.50
16273;DHT22;8244;50.044;9.006;2023-02-28T18:11:22;2.00;96.00
16273;DHT22;8244;50.044;9.006;2023-02-28T18:16:25;1.90;96.30
16273;DHT22;8244;50.044;9.006;2023-02-28T18:21:26;1.70;97.10
16273;DHT22;8244;50.044;9.006;2023-02-28T18:26:29;1.60;97.20
16273;DHT22;8244;50.044;9.006;2023-02-28T18:31:31;1.40;97.50
16273;DHT22;8244;50.044;9.006;2023-02-28T18:36:33;1.30;97.70
16273;DHT22;8244;50.044;9.006;2023-02-28T18:41:36;1.10;98.00
16273;DHT22;8244;50.044;9.006;2023-02-28T18:46:38;1.00;98.40
16273;DHT22;8244;50.044;9.006;2023-02-28T18:51:40;0.90;99.20
16273;DHT22;8244;50.044;9.006;2023-02-28T18:56:46;0.80;99.70
16273;DHT22;8244;50.044;9.006;2023-02-28T19:01:50;0.60;99.90
16273;DHT22;8244;50.044;9.006;2023-02-28T19:06:51;0.50;99.90
16273;DHT22;8244;50.044;9.006;2023-02-28T19:11:54;0.40;99.90
16273;DHT22;8244;50.044;9.006;2023-02-28T19:16:57;0.30;99.90
16273;DHT22;8244;50.044;9.006;2023-02-28T19:21:58;0.20;99.90
16273;DHT22;8244;50.044;9.006;2023-02-28T19:27:01;0.20;99.90
16273;DHT22;8244;50.044;9.006;2023-02-28T19:32:03;0.10;99.90
16273;DHT22;8244;50.044;9.006;2023-02-28T19:37:05;0.00;99.90
16273;DHT22;8244;50.044;9.006;2023-02-28T19:42:08;0.00;99.90
16273;DHT22;8244;50.044;9.006;2023-02-28T19:47:10;-0.10;99.90
16273;DHT22;8244;50.044;9.006;2023-02-28T19:52:12;-0.20;99.90
16273;DHT22;8244;50.044;9.006;2023-02-28T19:57:15;-0.20;99.90
16273;DHT22;8244;50.044;9.006;2023-02-28T20:02:19;-0.30;99.90
16273;DHT22;8244;50.044;9.006;2023-02-28T20:07:21;-0.30;99.90
16273;DHT22;8244;50.044;9.006;2023-02-28T20:12:25;-0.40;99.90
16273;DHT22;8244;50.044;9.006;2023-02-28T20:17:27;-0.40;99.90
16273;DHT22;8244;50.044;9.006;2023-02-28T20:22:29;-0.50;99.90
16273;DHT22;8244;50.044;9.006;2023-02-28T20:27:33;-0.50;99.90
16273;DHT22;8244;50.044;9.006;2023-02-28T20:32:34;-0.60;99.90
16273;DHT22;8244;50.044;9.006;2023-02-28T20:37:38;-0.70;99.90
16273;DHT22;8244;50.044;9.006;2023-02-28T20:42:41;-0.70;99.90
16273;DHT22;8244;50.044;9.006;2023-02-28T20:47:43;-0.80;99.90
16273;DHT22;8244;50.044;9.006;2023-02-28T20:52:44;-0.80;99.90
16273;DHT22;8244;50.044;9.006;2023-02-28T20:57:47;-0.80;99.90
16273;DHT22;8244;50.044;9.006;2023-02-28T21:02:50;-0.80;99.90
16273;DHT22;8244;50.044;9.006;2023-02-28T21:07:51;-0.70;99.90
16273;DHT22;8244;50.044;9.006;2023-02-28T21:12:54;-0.70;99.90
16273;DHT22;8244;50.044;9.006;2023-02-28T21:17:57;-0.70;99.90
16273;DHT22;8244;50.044;9.006;2023-02-28T21:22:58;-0.70;99.90
16273;DHT22;8244;50.044;9.006;2023-02-28T21:28:01;-0.80;99.90
16273;DHT22;8244;50.044;9.006;2023-02-28T21:33:03;-0.80;99.90
16273;DHT22;8244;50.044;9.006;2023-02-28T21:38:05;-0.80;99.90
16273;DHT22;8244;50.044;9.006;2023-02-28T21:43:08;-0.80;99.90
16273;DHT22;8244;50.044;9.006;2023-02-28T21:48:09;-0.90;99.90
16273;DHT22;8244;50.044;9.006;2023-02-28T21:53:11;-0.90;99.90
16273;DHT22;8244;50.044;9.006;2023-02-28T21:58:14;-1.00;99.90
16273;DHT22;8244;50.044;9.006;2023-02-28T22:03:15;-1.10;99.90
16273;DHT22;8244;50.044;9.006;2023-02-28T22:08:17;-1.20;99.90
16273;DHT22;8244;50.044;9.006;2023-02-28T22:13:20;-1.20;99.90
16273;DHT22;8244;50.044;9.006;2023-02-28T22:18:22;-1.20;99.90
16273;DHT22;8244;50.044;9.006;2023-02-28T22:23:23;-1.10;99.90
16273;DHT22;8244;50.044;9.006;2023-02-28T22:28:28;-1.00;99.90
16273;DHT22;8244;50.044;9.006;2023-02-28T22:33:30;-0.80;99.90
16273;DHT22;8244;50.044;9.006;2023-02-28T22:38:32;-0.70;99.90
16273;DHT22;8244;50.044;9.006;2023-02-28T22:43:36;-0.60;99.90
16273;DHT22;8244;50.044;9.006;2023-02-28T22:48:38;-0.40;99.90
16273;DHT22;8244;50.044;9.006;2023-02-28T22:53:41;-0.40;99.90
16273;DHT22;8244;50.044;9.006;2023-02-28T22:58:47;-0.40;99.90
16273;DHT22;8244;50.044;9.006;2023-02-28T23:03:49;-0.30;99.90
16273;DHT22;8244;50.044;9.006;2023-02-28T23:08:53;-0.30;99.90
16273;DHT22;8244;50.044;9.006;2023-02-28T23:13:57;-0.30;99.90
16273;DHT22;8244;50.044;9.006;2023-02-28T23:19:01;-0.20;99.90
16273;DHT22;8244;50.044;9.006;2023-02-28T23:24:03;-0.10;99.90
16273;DHT22;8244;50.044;9.006;2023-02-28T23:29:07;-0.20;99.90
16273;DHT22;8244;50.044;9.006;2023-02-28T23:34:09;-0.20;99.90
16273;DHT22;8244;50.044;9.006;2023-02-28T23:39:12;-0.20;99.90
16273;DHT22;8244;50.044;9.006;2023-02-28T23:44:17;-0.20;99.90
16273;DHT22;8244;50.044;9.006;2023-02-28T23:49:19;-0.30;99.90
16273;DHT22;8244;50.044;9.006;2023-02-28T23:54:22;-0.30;99.90
16273;DHT22;8244;50.044;9.006;2023-02-28T23:59:25;-0.30;99.90
